createdAt,value
2019-02-27T00:01:33.956Z,19.00
2019-02-27T00:02:29.962Z,20.30
2019-02-27T00:04:26.602Z,19.00
2019-02-27T00:05:24.709Z,20.30
2019-02-27T00:07:20.994Z,19.00
2019-02-27T00:08:20.194Z,20.30
2019-02-27T00:10:15.355Z,19.10
2019-02-27T00:11:14.195Z,20.40
2019-02-27T00:13:09.731Z,19.00
2019-02-27T00:14:07.943Z,20.30
2019-02-27T00:16:03.583Z,19.00
2019-02-27T00:17:04.229Z,20.50
2019-02-27T00:19:05.542Z,19.10
2019-02-27T00:19:58.212Z,20.40
2019-02-27T00:21:59.018Z,19.10
2019-02-27T00:22:52.188Z,20.40
2019-02-27T00:24:54.061Z,19.10
2019-02-27T00:25:46.175Z,20.40
2019-02-27T00:27:49.313Z,19.00
2019-02-27T00:28:42.613Z,20.40
2019-02-27T00:30:48.727Z,19.00
2019-02-27T00:31:40.271Z,20.40
2019-02-27T00:33:44.004Z,19.00
2019-02-27T00:34:34.304Z,20.40
2019-02-27T00:36:36.709Z,19.10
2019-02-27T00:37:28.571Z,20.40
2019-02-27T00:39:31.341Z,19.10
2019-02-27T00:40:22.804Z,20.40
2019-02-27T00:42:33.100Z,19.10
2019-02-27T00:43:17.549Z,20.50
2019-02-27T00:45:21.672Z,19.10
2019-02-27T00:46:14.011Z,20.50
2019-02-27T00:48:14.997Z,19.10
2019-02-27T00:49:07.733Z,20.50
2019-02-27T00:51:09.666Z,19.10
2019-02-27T00:52:02.577Z,20.50
2019-02-27T00:54:02.364Z,19.10
2019-02-27T00:54:56.580Z,20.50
2019-02-27T00:56:59.895Z,19.20
2019-02-27T00:57:51.827Z,20.60
2019-02-27T00:59:53.788Z,19.20
2019-02-27T01:00:45.586Z,20.60
2019-02-27T01:02:53.494Z,19.20
2019-02-27T01:03:39.585Z,20.60
2019-02-27T01:05:45.783Z,19.20
2019-02-27T01:06:33.598Z,20.60
2019-02-27T01:08:39.552Z,19.30
2019-02-27T01:09:28.603Z,20.60
2019-02-27T01:11:33.399Z,19.30
2019-02-27T01:12:25.205Z,20.60
2019-02-27T01:14:26.130Z,19.40
2019-02-27T01:15:18.551Z,20.70
2019-02-27T01:17:24.904Z,19.40
2019-02-27T01:18:15.671Z,20.60
2019-02-27T01:20:18.805Z,19.50
2019-02-27T01:21:10.270Z,20.80
2019-02-27T01:23:12.587Z,19.60
2019-02-27T01:24:05.809Z,20.80
2019-02-27T01:26:06.376Z,19.70
2019-02-27T01:27:05.358Z,20.80
2019-02-27T01:29:02.781Z,19.70
2019-02-27T01:30:00.588Z,20.80
2019-02-27T01:31:57.673Z,19.70
2019-02-27T01:32:54.819Z,20.90
2019-02-27T01:34:54.907Z,19.80
2019-02-27T01:35:54.832Z,20.90
2019-02-27T01:38:00.197Z,19.80
2019-02-27T01:38:47.227Z,21.00
2019-02-27T01:40:55.183Z,19.80
2019-02-27T01:41:41.752Z,21.00
2019-02-27T01:43:49.240Z,19.90
2019-02-27T01:44:35.741Z,21.00
2019-02-27T01:46:42.992Z,19.90
2019-02-27T01:47:35.755Z,21.10
2019-02-27T01:49:37.167Z,19.90
2019-02-27T01:50:38.233Z,21.10
2019-02-27T01:52:33.955Z,19.90
2019-02-27T01:53:32.371Z,21.10
2019-02-27T01:55:25.355Z,19.90
2019-02-27T01:56:28.839Z,21.30
2019-02-27T01:58:19.642Z,19.90
2019-02-27T01:59:21.208Z,21.50
2019-02-27T02:01:12.922Z,19.90
2019-02-27T02:02:15.300Z,21.40
2019-02-27T02:04:20.011Z,19.90
2019-02-27T02:07:04.059Z,21.80
2019-02-27T02:09:59.692Z,21.90
2019-02-27T02:10:29.788Z,20.00
2019-02-27T02:13:04.354Z,21.70
2019-02-27T02:13:28.850Z,20.00
2019-02-27T02:16:34.426Z,20.00
2019-02-27T02:16:43.342Z,21.60
2019-02-27T02:19:54.165Z,20.10
2019-02-27T02:20:02.628Z,21.60
2019-02-27T02:23:17.764Z,20.10
2019-02-27T02:23:26.638Z,21.50
2019-02-27T02:26:28.883Z,20.20
2019-02-27T02:26:35.036Z,21.50
2019-02-27T02:29:52.982Z,20.20
2019-02-27T02:29:55.608Z,21.50
2019-02-27T02:32:52.076Z,20.30
2019-02-27T02:33:36.572Z,21.60
2019-02-27T02:35:58.454Z,20.30
2019-02-27T02:36:47.937Z,21.60
2019-02-27T02:39:18.425Z,20.30
2019-02-27T02:40:30.751Z,21.70
2019-02-27T02:42:26.592Z,20.40
2019-02-27T02:43:52.866Z,21.70
2019-02-27T02:45:21.557Z,20.40
2019-02-27T02:48:30.985Z,20.50
2019-02-27T02:51:00.502Z,21.60
2019-02-27T02:51:22.090Z,20.50
2019-02-27T02:54:38.134Z,21.70
2019-02-27T02:54:39.250Z,20.60
2019-02-27T02:58:04.307Z,20.60
2019-02-27T02:58:11.407Z,21.70
2019-02-27T03:01:05.491Z,20.60
2019-02-27T03:01:33.286Z,21.70
2019-02-27T03:04:23.301Z,20.70
2019-02-27T03:05:37.742Z,21.70
2019-02-27T03:07:45.911Z,20.70
2019-02-27T03:10:42.909Z,21.70
2019-02-27T03:11:09.968Z,20.80
2019-02-27T03:13:11.298Z,22.20
2019-02-27T03:14:17.573Z,20.90
2019-02-27T03:15:38.904Z,22.10
2019-02-27T03:17:31.366Z,21.10
2019-02-27T03:18:06.796Z,22.00
2019-02-27T03:20:34.276Z,22.00
2019-02-27T03:20:43.534Z,21.20
2019-02-27T03:23:02.278Z,22.00
2019-02-27T03:23:52.050Z,21.30
2019-02-27T03:27:03.341Z,22.10
2019-02-27T03:27:06.194Z,21.40
2019-02-27T03:29:31.023Z,22.10
2019-02-27T03:30:36.313Z,21.40
2019-02-27T03:32:00.945Z,22.10
2019-02-27T03:33:29.760Z,21.50
2019-02-27T03:34:28.410Z,22.10
2019-02-27T03:36:36.015Z,21.60
2019-02-27T03:36:56.011Z,22.20
2019-02-27T03:39:23.594Z,22.30
2019-02-27T03:40:10.662Z,21.70
2019-02-27T03:41:58.456Z,22.40
2019-02-27T03:43:11.487Z,21.90
2019-02-27T03:44:21.535Z,22.50
2019-02-27T03:46:10.987Z,22.10
2019-02-27T03:46:49.296Z,22.60
2019-02-27T03:49:16.957Z,22.60
2019-02-27T03:49:28.442Z,22.40
2019-02-27T03:51:44.219Z,22.60
2019-02-27T03:52:41.228Z,22.60
2019-02-27T03:55:43.058Z,22.80
2019-02-27T03:58:49.893Z,22.90
2019-02-27T04:01:10.778Z,22.50
2019-02-27T04:02:05.872Z,22.90
2019-02-27T04:05:06.936Z,22.90
2019-02-27T04:05:54.880Z,22.60
2019-02-27T04:08:12.680Z,22.80
2019-02-27T04:08:14.746Z,22.60
2019-02-27T04:09:47.430Z,22.60
2019-02-27T04:11:16.054Z,22.80
2019-02-27T04:11:24.301Z,22.70
2019-02-27T04:13:01.043Z,22.70
2019-02-27T04:14:41.799Z,22.70
2019-02-27T04:16:18.667Z,22.70
2019-02-27T04:17:52.252Z,22.70
2019-02-27T04:18:17.504Z,22.90
2019-02-27T04:19:27.985Z,22.80
2019-02-27T04:21:04.357Z,22.70
2019-02-27T04:21:57.735Z,23.00
2019-02-27T04:22:46.881Z,22.80
2019-02-27T04:24:23.120Z,22.90
2019-02-27T04:24:30.549Z,23.10
2019-02-27T04:26:05.409Z,22.90
2019-02-27T04:27:28.184Z,23.30
2019-02-27T04:27:39.036Z,22.80
2019-02-27T04:29:11.862Z,22.80
2019-02-27T04:30:26.632Z,23.30
2019-02-27T04:30:51.952Z,22.80
2019-02-27T04:32:29.635Z,22.80
2019-02-27T04:33:31.606Z,23.30
2019-02-27T04:34:06.287Z,22.80
2019-02-27T04:35:44.903Z,22.80
2019-02-27T04:36:33.432Z,23.30
2019-02-27T04:37:21.036Z,22.80
2019-02-27T04:38:56.397Z,22.80
2019-02-27T04:39:26.545Z,23.40
2019-02-27T04:40:44.156Z,22.80
2019-02-27T04:42:25.737Z,23.50
2019-02-27T04:42:32.986Z,22.80
2019-02-27T04:44:10.268Z,22.80
2019-02-27T04:45:23.782Z,23.50
2019-02-27T04:45:46.885Z,22.80
2019-02-27T04:47:28.718Z,22.80
2019-02-27T04:48:24.117Z,23.60
2019-02-27T04:49:05.843Z,22.90
2019-02-27T04:50:45.648Z,23.00
2019-02-27T04:51:18.976Z,23.70
2019-02-27T04:52:19.355Z,23.10
2019-02-27T04:54:00.763Z,23.20
2019-02-27T04:54:18.272Z,23.90
2019-02-27T04:55:33.893Z,23.20
2019-02-27T04:57:06.765Z,23.20
2019-02-27T04:57:18.232Z,24.30
2019-02-27T04:58:44.409Z,23.20
2019-02-27T05:00:17.060Z,24.50
2019-02-27T05:00:17.579Z,23.30
2019-02-27T05:01:53.609Z,23.30
2019-02-27T05:03:13.361Z,24.60
2019-02-27T05:03:32.219Z,23.40
2019-02-27T05:05:10.937Z,23.30
2019-02-27T05:06:08.080Z,24.70
2019-02-27T05:06:46.945Z,23.30
2019-02-27T05:08:27.020Z,23.40
2019-02-27T05:09:08.797Z,24.80
2019-02-27T05:10:02.360Z,23.40
2019-02-27T05:11:40.602Z,23.40
2019-02-27T05:12:06.635Z,24.80
2019-02-27T05:13:20.469Z,23.40
2019-02-27T05:14:55.885Z,23.40
2019-02-27T05:15:04.201Z,24.90
2019-02-27T05:16:27.770Z,23.30
2019-02-27T05:17:58.813Z,24.80
2019-02-27T05:18:12.430Z,23.30
2019-02-27T05:19:52.026Z,23.40
2019-02-27T05:20:55.890Z,24.90
2019-02-27T05:21:46.566Z,23.30
2019-02-27T05:23:18.155Z,23.40
2019-02-27T05:23:49.706Z,24.90
2019-02-27T05:24:58.843Z,23.40
2019-02-27T05:26:37.858Z,23.40
2019-02-27T05:26:50.377Z,24.80
2019-02-27T05:28:22.327Z,23.50
2019-02-27T05:29:44.667Z,24.80
2019-02-27T05:29:59.986Z,23.50
2019-02-27T05:31:50.187Z,23.50
2019-02-27T05:32:43.187Z,24.90
2019-02-27T05:33:22.672Z,23.60
2019-02-27T05:34:56.381Z,23.60
2019-02-27T05:35:57.870Z,25.00
2019-02-27T05:36:34.347Z,23.80
2019-02-27T05:38:13.332Z,23.80
2019-02-27T05:38:53.468Z,25.30
2019-02-27T05:39:44.933Z,23.80
2019-02-27T05:41:33.258Z,23.80
2019-02-27T05:41:50.287Z,25.60
2019-02-27T05:43:03.887Z,23.80
2019-02-27T05:44:46.172Z,25.70
2019-02-27T05:45:15.120Z,23.70
2019-02-27T05:46:48.138Z,23.80
2019-02-27T05:47:44.668Z,25.80
2019-02-27T05:48:50.937Z,23.80
2019-02-27T05:51:02.093Z,25.80
2019-02-27T05:53:07.353Z,23.90
2019-02-27T05:53:51.002Z,25.70
2019-02-27T05:56:09.876Z,24.10
2019-02-27T05:56:49.622Z,25.80
2019-02-27T05:59:23.565Z,24.60
2019-02-27T05:59:45.292Z,26.10
2019-02-27T06:02:21.403Z,24.90
2019-02-27T06:02:45.055Z,26.70
2019-02-27T06:05:16.619Z,24.60
2019-02-27T06:05:39.884Z,26.80
2019-02-27T06:08:12.435Z,24.80
2019-02-27T06:08:37.999Z,27.00
2019-02-27T06:11:07.758Z,24.80
2019-02-27T06:11:33.068Z,27.20
2019-02-27T06:14:03.287Z,25.00
2019-02-27T06:14:25.893Z,27.10
2019-02-27T06:17:26.239Z,27.20
2019-02-27T06:19:01.253Z,25.00
2019-02-27T06:20:24.639Z,27.20
2019-02-27T06:21:59.409Z,24.90
2019-02-27T06:23:20.330Z,27.20
2019-02-27T06:25:14.205Z,25.00
2019-02-27T06:26:13.997Z,27.20
2019-02-27T06:28:04.288Z,25.10
2019-02-27T06:29:15.531Z,27.20
2019-02-27T06:31:02.450Z,25.10
2019-02-27T06:32:12.172Z,27.20
2019-02-27T06:35:08.639Z,27.20
2019-02-27T06:35:09.761Z,25.00
2019-02-27T06:38:05.923Z,27.10
2019-02-27T06:38:06.702Z,24.90
2019-02-27T06:41:03.159Z,24.90
2019-02-27T06:41:04.564Z,26.80
2019-02-27T06:44:03.115Z,26.80
2019-02-27T06:46:59.887Z,26.80
2019-02-27T06:49:56.757Z,26.70
2019-02-27T06:52:49.916Z,26.50
2019-02-27T06:55:43.895Z,26.30
2019-02-27T06:58:37.199Z,26.10
2019-02-27T07:01:31.118Z,25.90
2019-02-27T07:04:26.842Z,25.80
2019-02-27T07:07:20.053Z,25.80
2019-02-27T07:10:19.460Z,25.60
2019-02-27T07:13:11.607Z,25.60
2019-02-27T07:16:05.400Z,25.60
2019-02-27T07:19:07.484Z,25.50
2019-02-27T07:20:21.411Z,24.80
2019-02-27T07:22:06.233Z,25.60
2019-02-27T07:24:59.249Z,25.70
2019-02-27T07:27:53.998Z,25.70
2019-02-27T07:31:00.882Z,25.80
2019-02-27T07:33:56.658Z,25.90
2019-02-27T07:36:51.493Z,26.00
2019-02-27T07:39:45.525Z,26.10
2019-02-27T07:42:42.118Z,26.10
2019-02-27T07:45:42.687Z,26.10
2019-02-27T07:48:33.818Z,26.30
2019-02-27T07:51:28.431Z,27.00
2019-02-27T07:54:28.831Z,28.00
2019-02-27T07:57:19.380Z,28.80
2019-02-27T08:00:23.484Z,29.50
2019-02-27T08:03:19.445Z,30.10
2019-02-27T08:06:13.187Z,30.10
2019-02-27T08:09:07.869Z,29.70
2019-02-27T08:12:01.826Z,29.80
2019-02-27T08:14:56.231Z,29.40
2019-02-27T08:17:50.444Z,28.90
2019-02-27T08:20:48.014Z,28.40
2019-02-27T08:23:43.082Z,28.20
2019-02-27T08:26:37.050Z,28.00
2019-02-27T08:29:30.571Z,28.00
2019-02-27T08:32:25.495Z,27.70
2019-02-27T08:35:18.644Z,27.60
2019-02-27T08:38:15.345Z,27.50
2019-02-27T08:41:08.901Z,27.50
2019-02-27T08:44:03.295Z,27.30
2019-02-27T08:47:04.313Z,27.30
2019-02-27T08:49:59.143Z,27.00
2019-02-27T08:52:52.555Z,27.00
2019-02-27T08:55:46.277Z,26.90
2019-02-27T08:58:39.883Z,26.70
2019-02-27T09:01:33.272Z,26.50
2019-02-27T09:04:27.020Z,26.50
2019-02-27T09:07:20.074Z,26.40
2019-02-27T09:10:15.327Z,26.30
2019-02-27T09:13:08.223Z,26.10
2019-02-27T09:16:23.031Z,26.10
2019-02-27T09:19:15.803Z,26.00
2019-02-27T09:22:19.482Z,25.80
2019-02-27T09:25:13.299Z,25.70
2019-02-27T09:28:09.446Z,25.60
2019-02-27T09:31:04.296Z,25.40
2019-02-27T09:34:04.963Z,25.40
2019-02-27T09:40:39.752Z,25.20
2019-02-27T09:43:35.976Z,25.10
2019-02-27T09:46:43.305Z,25.00
2019-02-27T09:49:30.741Z,24.90
2019-02-27T09:52:24.434Z,24.90
2019-02-27T09:55:20.869Z,24.80
2019-02-27T09:58:16.631Z,24.70
2019-02-27T10:03:19.848Z,24.70
2019-02-27T10:05:52.180Z,24.60
2019-02-27T10:08:28.910Z,24.50
2019-02-27T10:11:02.990Z,24.50
2019-02-27T10:13:41.355Z,24.40
2019-02-27T10:16:56.320Z,24.40
2019-02-27T10:19:06.031Z,24.30
2019-02-27T10:21:45.422Z,24.20
2019-02-27T10:24:18.322Z,24.10
2019-02-27T10:26:53.548Z,24.10
2019-02-27T10:29:27.515Z,24.00
2019-02-27T10:32:01.381Z,24.00
2019-02-27T10:34:36.261Z,23.90
2019-02-27T10:37:12.856Z,23.80
2019-02-27T10:39:48.801Z,23.80
2019-02-27T10:42:25.725Z,23.70
2019-02-27T10:45:01.661Z,23.60
2019-02-27T10:47:39.755Z,23.50
2019-02-27T10:50:12.960Z,23.50
2019-02-27T10:52:50.090Z,23.50
2019-02-27T10:55:26.999Z,23.40
2019-02-27T10:58:02.791Z,23.40
2019-02-27T11:00:40.373Z,23.30
2019-02-27T11:03:16.068Z,23.20
2019-02-27T11:05:54.094Z,23.20
2019-02-27T11:08:29.647Z,23.10
2019-02-27T11:11:04.833Z,23.00
2019-02-27T11:13:38.718Z,23.00
2019-02-27T11:16:12.537Z,23.00
2019-02-27T11:18:46.351Z,23.00
2019-02-27T11:21:20.515Z,22.90
2019-02-27T11:23:55.833Z,22.90
2019-02-27T11:26:32.967Z,22.90
2019-02-27T11:29:08.044Z,22.80
2019-02-27T11:31:42.318Z,22.80
2019-02-27T11:34:18.508Z,22.80
2019-02-27T11:36:53.711Z,22.70
2019-02-27T11:39:30.510Z,22.60
2019-02-27T11:42:03.125Z,22.70
2019-02-27T11:44:39.879Z,22.60
2019-02-27T11:47:13.727Z,22.60
2019-02-27T11:49:47.901Z,22.60
2019-02-27T11:52:21.404Z,22.50
2019-02-27T11:54:55.679Z,22.60
2019-02-27T11:57:30.585Z,22.60
2019-02-27T12:00:04.987Z,22.60
2019-02-27T12:02:40.589Z,22.60
2019-02-27T12:05:16.036Z,22.60
2019-02-27T12:07:51.913Z,22.60
2019-02-27T12:10:28.471Z,22.60
2019-02-27T12:13:02.096Z,22.60
2019-02-27T12:15:36.287Z,22.60
2019-02-27T12:18:11.798Z,22.60
2019-02-27T12:20:46.058Z,22.60
2019-02-27T12:23:20.732Z,22.60
2019-02-27T12:25:55.825Z,22.60
2019-02-27T12:28:29.458Z,22.50
2019-02-27T12:31:03.363Z,22.60
2019-02-27T12:33:44.550Z,22.50
2019-02-27T12:36:18.670Z,22.50
2019-02-27T12:38:51.757Z,22.50
2019-02-27T12:41:26.036Z,22.60
2019-02-27T12:43:59.768Z,22.50
2019-02-27T12:46:37.001Z,22.50
2019-02-27T12:49:11.136Z,22.50
2019-02-27T12:51:45.151Z,22.50
2019-02-27T12:54:18.681Z,22.50
2019-02-27T12:56:52.640Z,22.50
2019-02-27T12:59:26.308Z,22.50
2019-02-27T13:02:08.105Z,22.50
2019-02-27T13:04:35.715Z,22.50
2019-02-27T13:07:10.728Z,22.50
2019-02-27T13:09:46.969Z,22.50
2019-02-27T13:12:24.004Z,22.50
2019-02-27T13:14:59.466Z,22.50
2019-02-27T13:17:33.100Z,22.50
2019-02-27T13:20:09.076Z,22.50
2019-02-27T13:22:44.488Z,22.50
2019-02-27T13:25:21.312Z,22.50
2019-02-27T13:27:53.487Z,22.50
2019-02-27T13:30:29.440Z,22.40
2019-02-27T13:33:03.970Z,22.50
2019-02-27T13:35:38.811Z,22.40
2019-02-27T13:38:17.467Z,22.50
2019-02-27T13:40:50.083Z,22.50
2019-02-27T13:43:27.130Z,22.40
2019-02-27T13:46:04.480Z,22.40
2019-02-27T13:48:44.171Z,22.40
2019-02-27T13:51:29.623Z,22.40
2019-02-27T13:54:06.559Z,22.40
2019-02-27T13:56:55.068Z,22.40
2019-02-27T13:59:35.852Z,22.40
2019-02-27T14:02:11.350Z,22.40
2019-02-27T14:04:53.854Z,22.40
2019-02-27T14:07:29.817Z,22.40
2019-02-27T14:10:17.156Z,22.40
2019-02-27T14:12:54.628Z,22.40
2019-02-27T14:15:44.629Z,22.40
2019-02-27T14:18:25.462Z,22.40
2019-02-27T14:21:01.764Z,22.40
2019-02-27T14:26:33.518Z,22.40
2019-02-27T14:29:09.221Z,22.50
2019-02-27T14:31:50.601Z,22.40
2019-02-27T14:34:40.261Z,22.40
2019-02-27T14:37:21.932Z,22.40
2019-02-27T14:40:01.037Z,22.40
2019-02-27T14:42:35.946Z,22.40
2019-02-27T14:45:30.083Z,22.40
2019-02-27T14:51:12.952Z,22.40
2019-02-27T14:56:54.777Z,22.40
2019-02-27T14:59:36.235Z,22.40
2019-02-27T15:05:24.433Z,22.40
2019-02-27T15:08:09.485Z,22.40
2019-02-27T15:10:51.239Z,22.40
2019-02-27T15:13:29.368Z,22.40
2019-02-27T15:16:07.483Z,22.40
2019-02-27T15:18:59.261Z,22.40
2019-02-27T15:21:47.362Z,22.40
2019-02-27T15:24:26.309Z,22.40
2019-02-27T15:27:19.527Z,22.40
2019-02-27T15:30:14.169Z,22.40
2019-02-27T15:32:54.303Z,22.40
2019-02-27T15:35:34.078Z,22.40
2019-02-27T15:38:22.687Z,22.30
2019-02-27T15:41:02.605Z,22.30
2019-02-27T15:43:40.759Z,22.30
2019-02-27T15:46:26.965Z,22.30
2019-02-27T15:49:19.260Z,22.30
2019-02-27T15:52:08.623Z,22.30
2019-02-27T16:06:53.837Z,22.30
2019-02-27T16:12:37.019Z,22.20
2019-02-27T16:15:20.890Z,22.20
2019-02-27T16:21:12.055Z,22.20
2019-02-27T16:23:59.811Z,22.30
2019-02-27T16:29:48.984Z,22.20
2019-02-27T16:38:43.031Z,22.20
2019-02-27T16:41:29.031Z,22.20
2019-02-27T16:44:22.792Z,22.20
2019-02-27T16:47:19.599Z,22.20
2019-02-27T16:49:57.946Z,22.10
2019-02-27T16:52:39.104Z,22.10
2019-02-27T17:04:18.377Z,22.10
2019-02-27T17:07:05.473Z,22.10
2019-02-27T17:09:52.620Z,22.10
2019-02-27T17:12:43.263Z,22.10
2019-02-27T17:15:23.256Z,22.10
2019-02-27T17:18:03.814Z,22.10
2019-02-27T17:20:46.040Z,22.10
